createdAt,value
2019-05-28T00:00:33.763Z,11.80
2019-05-28T00:03:07.140Z,13.25
2019-05-28T00:05:40.138Z,12.53
2019-05-28T00:08:13.025Z,13.65
2019-05-28T00:10:45.595Z,13.28
2019-05-28T00:13:18.266Z,12.67
2019-05-28T00:15:50.680Z,12.25
2019-05-28T00:18:23.375Z,12.60
2019-05-28T00:20:56.035Z,11.60
2019-05-28T00:23:28.920Z,11.50
2019-05-28T00:26:01.320Z,12.28
2019-05-28T00:28:33.971Z,12.70
2019-05-28T00:31:06.945Z,11.05
2019-05-28T00:33:39.753Z,12.45
2019-05-28T00:36:12.238Z,11.43
2019-05-28T00:38:44.785Z,13.28
2019-05-28T00:41:18.525Z,12.68
2019-05-28T00:43:51.110Z,12.03
2019-05-28T00:46:23.720Z,12.85
2019-05-28T00:48:56.347Z,11.60
2019-05-28T00:51:29.396Z,12.88
2019-05-28T00:54:02.260Z,12.88
2019-05-28T00:56:36.005Z,12.98
2019-05-28T00:59:08.814Z,12.37
2019-05-28T01:01:41.240Z,12.80
2019-05-28T01:04:13.666Z,12.15
2019-05-28T01:06:46.219Z,11.83
2019-05-28T01:09:19.831Z,11.20
2019-05-28T01:11:52.226Z,12.33
2019-05-28T01:14:24.665Z,12.33
2019-05-28T01:16:58.455Z,12.23
2019-05-28T01:19:32.270Z,13.03
2019-05-28T01:22:06.060Z,13.13
2019-05-28T01:24:40.210Z,13.10
2019-05-28T01:27:13.470Z,12.95
2019-05-28T01:29:45.912Z,13.25
2019-05-28T01:32:19.715Z,13.85
2019-05-28T01:34:52.320Z,12.78
2019-05-28T01:37:24.790Z,12.25
2019-05-28T01:39:57.365Z,13.45
2019-05-28T01:42:29.840Z,14.00
2019-05-28T01:45:02.455Z,13.20
2019-05-28T01:47:36.284Z,13.53
2019-05-28T01:50:09.721Z,14.20
2019-05-28T01:52:43.518Z,14.33
2019-05-28T01:55:16.945Z,15.35
2019-05-28T01:57:49.771Z,14.30
2019-05-28T02:00:22.240Z,13.93
2019-05-28T02:02:54.958Z,14.55
2019-05-28T02:05:27.360Z,14.03
2019-05-28T02:07:59.776Z,13.75
2019-05-28T02:10:32.315Z,14.95
2019-05-28T02:13:05.263Z,15.25
2019-05-28T02:15:37.750Z,14.85
2019-05-28T02:18:10.251Z,14.80
2019-05-28T02:20:43.225Z,15.13
2019-05-28T02:23:15.663Z,14.47
2019-05-28T02:25:48.308Z,14.83
2019-05-28T02:28:21.106Z,15.53
2019-05-28T02:30:53.876Z,15.72
2019-05-28T02:33:26.474Z,14.95
2019-05-28T02:35:58.987Z,14.45
2019-05-28T02:38:31.426Z,17.80
2019-05-28T02:41:04.180Z,17.07
2019-05-28T02:43:37.103Z,17.00
2019-05-28T02:46:09.695Z,17.85
2019-05-28T02:48:42.355Z,17.55
2019-05-28T02:51:15.445Z,19.10
2019-05-28T02:53:47.995Z,18.75
2019-05-28T02:56:20.961Z,17.10
2019-05-28T02:58:55.700Z,18.50
2019-05-28T03:01:42.951Z,17.30
2019-05-28T03:04:05.405Z,17.70
2019-05-28T03:06:40.140Z,16.52
2019-05-28T03:09:12.677Z,17.35
2019-05-28T03:11:45.196Z,15.95
2019-05-28T03:14:17.870Z,17.82
2019-05-28T03:16:52.960Z,19.42
2019-05-28T03:19:27.157Z,18.20
2019-05-28T03:22:01.720Z,20.08
2019-05-28T03:24:36.809Z,17.98
2019-05-28T03:27:09.387Z,17.35
2019-05-28T03:29:41.990Z,17.05
2019-05-28T03:32:14.516Z,17.30
2019-05-28T03:34:47.056Z,17.70
2019-05-28T03:37:21.490Z,17.55
2019-05-28T03:39:56.440Z,20.17
2019-05-28T03:42:28.840Z,18.07
2019-05-28T03:45:01.353Z,19.47
2019-05-28T03:47:33.780Z,18.77
2019-05-28T03:50:08.526Z,18.48
2019-05-28T03:52:41.196Z,20.13
2019-05-28T03:55:13.919Z,19.43
2019-05-28T03:57:46.357Z,18.13
2019-05-28T04:00:19.471Z,16.57
2019-05-28T04:02:52.625Z,17.35
2019-05-28T04:05:25.265Z,19.10
2019-05-28T04:07:57.955Z,19.30
2019-05-28T04:10:30.405Z,20.20
2019-05-28T04:13:02.913Z,19.80
2019-05-28T04:15:35.961Z,20.72
2019-05-28T04:18:08.489Z,21.23
2019-05-28T04:20:41.005Z,20.23
2019-05-28T04:23:17.259Z,18.17
2019-05-28T04:25:49.710Z,19.93
2019-05-28T04:28:22.405Z,20.70
2019-05-28T04:30:54.835Z,20.72
2019-05-28T04:33:27.312Z,21.83
2019-05-28T04:35:59.880Z,22.15
2019-05-28T04:38:32.471Z,21.48
2019-05-28T04:41:05.101Z,18.85
2019-05-28T04:43:37.620Z,20.08
2019-05-28T04:46:10.055Z,22.35
2019-05-28T04:48:42.500Z,20.62
2019-05-28T04:51:15.052Z,20.25
2019-05-28T04:53:48.660Z,21.15
2019-05-28T04:56:21.230Z,22.13
2019-05-28T04:58:54.731Z,21.10
2019-05-28T05:01:27.232Z,20.30
2019-05-28T05:04:01.010Z,21.10
2019-05-28T05:06:33.638Z,21.60
2019-05-28T05:09:08.155Z,21.95
2019-05-28T05:11:41.035Z,21.35
2019-05-28T05:14:13.566Z,22.15
2019-05-28T05:16:46.246Z,22.52
2019-05-28T05:19:18.750Z,23.27
2019-05-28T05:21:51.417Z,21.67
2019-05-28T05:24:24.075Z,20.97
2019-05-28T05:26:56.650Z,22.48
2019-05-28T05:29:29.025Z,20.00
2019-05-28T05:32:01.856Z,20.32
2019-05-28T05:34:34.370Z,21.62
2019-05-28T05:37:07.115Z,19.52
2019-05-28T05:39:39.785Z,22.67
2019-05-28T05:42:12.500Z,22.00
2019-05-28T05:44:45.005Z,18.23
2019-05-28T05:47:17.550Z,18.60
2019-05-28T05:49:49.941Z,18.90
2019-05-28T05:52:22.910Z,18.25
2019-05-28T05:54:55.516Z,19.35
2019-05-28T05:57:28.038Z,20.75
2019-05-28T06:00:00.446Z,19.00
2019-05-28T06:02:33.094Z,20.60
2019-05-28T06:05:07.040Z,20.95
2019-05-28T06:07:39.706Z,20.77
2019-05-28T06:10:12.427Z,21.12
2019-05-28T06:12:45.580Z,22.00
2019-05-28T06:15:19.525Z,19.82
2019-05-28T06:17:52.086Z,24.30
2019-05-28T06:20:24.541Z,20.80
2019-05-28T06:22:56.946Z,22.45
2019-05-28T06:25:29.899Z,19.73
2019-05-28T06:28:02.415Z,21.37
2019-05-28T06:30:34.910Z,21.20
2019-05-28T06:33:07.555Z,18.37
2019-05-28T06:35:40.135Z,15.72
2019-05-28T06:38:12.605Z,17.82
2019-05-28T06:40:44.945Z,17.52
2019-05-28T06:43:17.445Z,17.32
2019-05-28T06:45:49.920Z,18.57
2019-05-28T06:48:22.432Z,19.32
2019-05-28T06:50:54.956Z,17.70
2019-05-28T06:53:27.238Z,17.52
2019-05-28T06:55:59.791Z,18.48
2019-05-28T06:58:39.425Z,19.12
2019-05-28T07:01:06.555Z,20.57
2019-05-28T07:03:39.210Z,18.67
2019-05-28T07:06:11.776Z,17.05
2019-05-28T07:08:44.495Z,18.17
2019-05-28T07:11:17.100Z,17.30
2019-05-28T07:13:49.510Z,16.87
2019-05-28T07:16:22.165Z,15.98
2019-05-28T07:18:54.580Z,16.62
2019-05-28T07:21:27.125Z,18.80
2019-05-28T07:23:59.510Z,20.17
2019-05-28T07:26:32.251Z,15.50
2019-05-28T07:29:04.735Z,13.18
2019-05-28T07:31:37.564Z,13.95
2019-05-28T07:34:10.345Z,13.70
2019-05-28T07:36:42.965Z,15.00
2019-05-28T07:39:16.390Z,14.73
2019-05-28T07:41:48.835Z,13.08
2019-05-28T07:44:21.465Z,12.53
2019-05-28T07:46:54.220Z,13.00
2019-05-28T07:49:26.686Z,11.73
2019-05-28T07:51:59.153Z,11.12
2019-05-28T07:54:31.755Z,11.53
2019-05-28T07:57:04.325Z,11.15
2019-05-28T07:59:36.820Z,11.43
2019-05-28T08:02:09.581Z,11.48
2019-05-28T08:04:47.164Z,11.22
2019-05-28T08:07:17.045Z,10.45
2019-05-28T08:09:49.760Z,8.60
2019-05-28T08:12:23.256Z,10.25
2019-05-28T08:14:55.790Z,9.75
2019-05-28T08:17:28.695Z,11.28
2019-05-28T08:20:01.362Z,10.93
2019-05-28T08:22:42.444Z,10.13
2019-05-28T08:25:27.238Z,9.58
2019-05-28T08:27:43.655Z,9.83
2019-05-28T08:30:16.325Z,8.55
2019-05-28T08:32:49.031Z,9.48
2019-05-28T08:35:21.495Z,8.80
2019-05-28T08:37:54.220Z,9.65
2019-05-28T08:40:27.070Z,9.50
2019-05-28T08:43:00.034Z,8.68
2019-05-28T08:45:32.700Z,8.60
2019-05-28T08:48:05.402Z,8.33
2019-05-28T08:50:37.768Z,8.80
2019-05-28T08:53:10.505Z,8.08
2019-05-28T08:55:43.118Z,8.28
2019-05-28T08:58:15.581Z,9.38
2019-05-28T09:00:48.271Z,8.68
2019-05-28T09:03:20.865Z,10.45
2019-05-28T09:05:53.499Z,9.45
2019-05-28T09:08:38.375Z,10.20
2019-05-28T09:11:00.230Z,8.83
2019-05-28T09:13:32.915Z,9.48
2019-05-28T09:16:05.381Z,10.20
2019-05-28T09:18:37.920Z,10.95
2019-05-28T09:21:10.502Z,11.10
2019-05-28T09:23:43.191Z,11.25
2019-05-28T09:26:15.640Z,10.75
2019-05-28T09:28:48.383Z,11.60
2019-05-28T09:31:20.662Z,10.53
2019-05-28T09:33:52.985Z,9.70
2019-05-28T09:36:25.460Z,10.38
2019-05-28T09:38:58.030Z,11.10
2019-05-28T09:41:30.705Z,11.63
2019-05-28T09:44:03.586Z,12.98
2019-05-28T09:46:36.175Z,14.75
2019-05-28T09:49:08.805Z,14.07
2019-05-28T09:51:41.230Z,12.47
2019-05-28T09:54:13.820Z,13.20
2019-05-28T09:56:46.591Z,12.30
2019-05-28T09:59:19.390Z,11.57
2019-05-28T10:01:52.190Z,13.43
2019-05-28T10:04:44.258Z,13.85
2019-05-28T10:06:59.429Z,13.50
2019-05-28T10:09:32.552Z,12.85
2019-05-28T10:12:05.215Z,13.95
2019-05-28T10:14:37.905Z,13.30
2019-05-28T10:17:10.545Z,14.53
2019-05-28T10:19:43.301Z,15.43
2019-05-28T10:22:15.745Z,14.50
2019-05-28T10:24:48.405Z,19.48
2019-05-28T10:27:20.690Z,16.75
2019-05-28T10:29:53.103Z,17.25
2019-05-28T10:32:25.770Z,13.72
2019-05-28T10:35:03.901Z,12.30
2019-05-28T10:37:32.390Z,14.28
2019-05-28T10:40:08.036Z,13.00
2019-05-28T10:42:41.195Z,13.40
2019-05-28T10:45:14.086Z,11.20
2019-05-28T10:47:46.785Z,11.97
2019-05-28T10:50:19.547Z,10.30
2019-05-28T10:52:51.982Z,12.50
2019-05-28T10:55:24.455Z,12.95
2019-05-28T10:57:56.776Z,11.97
2019-05-28T11:00:29.456Z,12.20
2019-05-28T11:03:02.256Z,16.55
2019-05-28T11:05:34.658Z,14.75
2019-05-28T11:08:07.036Z,12.05
2019-05-28T11:10:39.395Z,14.40
2019-05-28T11:13:11.756Z,13.22
2019-05-28T11:15:45.355Z,10.60
2019-05-28T11:18:17.680Z,10.30
2019-05-28T11:20:50.115Z,11.80
2019-05-28T11:23:22.596Z,11.53
2019-05-28T11:25:54.916Z,14.93
2019-05-28T11:28:27.195Z,14.75
2019-05-28T11:31:00.635Z,11.78
2019-05-28T11:33:33.007Z,17.90
2019-05-28T11:36:05.637Z,20.30
2019-05-28T11:38:37.918Z,9.95
2019-05-28T11:41:10.456Z,18.52
2019-05-28T11:43:42.735Z,16.10
2019-05-28T11:46:15.155Z,14.23
2019-05-28T11:48:47.556Z,7.67
2019-05-28T11:51:20.008Z,7.37
2019-05-28T11:53:52.356Z,12.10
2019-05-28T11:56:24.796Z,8.28
2019-05-28T11:58:57.137Z,7.17
2019-05-28T12:01:35.020Z,8.33
2019-05-28T12:04:04.857Z,8.25
2019-05-28T12:06:38.309Z,7.35
2019-05-28T12:09:11.036Z,20.35
2019-05-28T12:11:43.460Z,8.50
2019-05-28T12:14:16.036Z,6.90
2019-05-28T12:16:48.416Z,6.78
2019-05-28T12:19:20.842Z,5.60
2019-05-28T12:21:53.138Z,6.58
2019-05-28T12:24:28.291Z,8.23
2019-05-28T12:26:59.461Z,6.65
2019-05-28T12:29:31.796Z,4.22
2019-05-28T12:32:06.934Z,6.45
2019-05-28T12:34:38.475Z,5.15
2019-05-28T12:37:10.896Z,6.33
2019-05-28T12:39:43.486Z,9.03
2019-05-28T12:42:15.915Z,8.43
2019-05-28T12:44:48.356Z,9.50
2019-05-28T12:47:20.656Z,5.15
2019-05-28T12:49:53.040Z,6.20
2019-05-28T12:52:25.376Z,11.03
2019-05-28T12:54:57.695Z,6.05
2019-05-28T12:57:30.101Z,7.72
2019-05-28T13:00:02.529Z,7.70
2019-05-28T13:02:35.400Z,7.70
2019-05-28T13:05:14.136Z,8.73
2019-05-28T13:08:05.760Z,5.83
2019-05-28T13:10:21.055Z,6.62
2019-05-28T13:12:53.357Z,4.83
2019-05-28T13:15:25.975Z,4.62
2019-05-28T13:17:58.338Z,6.30
2019-05-28T13:20:30.731Z,18.77
2019-05-28T13:23:06.796Z,6.25
2019-05-28T13:25:39.175Z,7.78
2019-05-28T13:28:11.455Z,5.42
2019-05-28T13:30:43.819Z,7.30
2019-05-28T13:33:16.050Z,6.55
2019-05-28T13:35:48.635Z,7.83
2019-05-28T13:38:26.930Z,10.13
2019-05-28T13:40:54.956Z,5.58
2019-05-28T13:43:27.349Z,6.10
2019-05-28T13:45:59.757Z,4.75
2019-05-28T13:48:32.215Z,4.83
2019-05-28T13:51:05.435Z,4.62
2019-05-28T13:53:39.060Z,4.67
2019-05-28T13:56:11.676Z,5.22
2019-05-28T13:58:44.109Z,5.47
2019-05-28T14:01:16.637Z,8.53
2019-05-28T14:03:49.115Z,6.05
2019-05-28T14:06:21.369Z,8.40
2019-05-28T14:08:53.817Z,14.35
2019-05-28T14:11:26.737Z,4.15
2019-05-28T14:13:59.177Z,4.00
2019-05-28T14:16:31.479Z,4.33
2019-05-28T14:19:03.878Z,3.47
2019-05-28T14:21:36.340Z,3.85
2019-05-28T14:24:08.623Z,4.15
2019-05-28T14:26:41.015Z,3.40
2019-05-28T14:29:13.718Z,3.65
2019-05-28T14:31:46.021Z,4.45
2019-05-28T14:34:18.436Z,3.80
2019-05-28T14:36:50.695Z,5.42
2019-05-28T14:39:37.962Z,4.78
2019-05-28T14:41:57.950Z,4.05
2019-05-28T14:44:31.030Z,5.72
2019-05-28T14:47:03.491Z,4.67
2019-05-28T14:49:35.891Z,3.95
2019-05-28T14:52:08.159Z,4.40
2019-05-28T14:54:40.552Z,4.55
2019-05-28T14:57:13.137Z,4.15
2019-05-28T14:59:45.815Z,5.03
2019-05-28T15:02:18.733Z,4.00
2019-05-28T15:04:51.614Z,4.15
2019-05-28T15:07:24.369Z,4.33
2019-05-28T15:09:57.211Z,3.80
2019-05-28T15:12:29.641Z,4.28
2019-05-28T15:15:02.741Z,3.67
2019-05-28T15:17:35.449Z,2.95
2019-05-28T15:20:09.093Z,4.33
2019-05-28T15:22:43.191Z,5.05
2019-05-28T15:25:17.210Z,4.00
2019-05-28T15:27:49.660Z,4.40
2019-05-28T15:30:22.699Z,4.12
2019-05-28T15:32:55.231Z,3.77
2019-05-28T15:35:27.805Z,3.27
2019-05-28T15:38:00.326Z,4.17
2019-05-28T15:40:33.205Z,3.80
2019-05-28T15:43:06.887Z,4.80
2019-05-28T15:45:39.601Z,4.35
2019-05-28T15:48:12.356Z,4.30
2019-05-28T15:50:45.057Z,4.85
2019-05-28T15:53:17.575Z,3.47
2019-05-28T15:55:50.200Z,3.37
2019-05-28T15:58:23.231Z,3.57
2019-05-28T16:00:55.931Z,3.10
2019-05-28T16:03:28.575Z,3.30
2019-05-28T16:06:01.278Z,2.83
2019-05-28T16:08:34.021Z,3.20
2019-05-28T16:11:06.460Z,2.90
2019-05-28T16:13:38.872Z,2.70
2019-05-28T16:16:11.596Z,2.70
2019-05-28T16:18:44.306Z,3.25
2019-05-28T16:21:17.010Z,3.53
2019-05-28T16:23:49.525Z,3.87
2019-05-28T16:26:22.422Z,4.50
2019-05-28T16:28:54.945Z,3.60
2019-05-28T16:31:27.650Z,4.30
2019-05-28T16:34:00.245Z,5.75
2019-05-28T16:36:33.215Z,4.37
2019-05-28T16:39:08.991Z,4.00
2019-05-28T16:41:41.631Z,3.50
2019-05-28T16:44:14.175Z,3.10
2019-05-28T16:46:46.770Z,3.40
2019-05-28T16:49:19.483Z,3.70
2019-05-28T16:51:51.916Z,5.47
2019-05-28T16:54:24.651Z,3.33
2019-05-28T16:56:57.631Z,3.57
2019-05-28T16:59:30.375Z,4.23
2019-05-28T17:02:02.931Z,4.07
2019-05-28T17:04:35.530Z,3.70
2019-05-28T17:07:08.045Z,3.27
2019-05-28T17:09:40.907Z,3.17
2019-05-28T17:12:13.396Z,3.43
2019-05-28T17:14:45.920Z,3.47
2019-05-28T17:17:18.387Z,3.30
2019-05-28T17:19:51.006Z,3.73
2019-05-28T17:22:23.591Z,3.70
2019-05-28T17:24:56.227Z,3.57
2019-05-28T17:27:28.893Z,4.20
2019-05-28T17:30:17.340Z,3.37
2019-05-28T17:32:36.936Z,4.03
2019-05-28T17:35:10.346Z,4.47
2019-05-28T17:37:42.866Z,5.57
2019-05-28T17:40:21.987Z,5.87
2019-05-28T17:42:52.349Z,5.87
2019-05-28T17:45:25.527Z,9.77
2019-05-28T17:47:58.549Z,5.47
2019-05-28T17:50:31.174Z,6.83
2019-05-28T17:53:03.593Z,5.40
2019-05-28T17:55:36.438Z,4.67
2019-05-28T17:58:09.230Z,5.77
2019-05-28T18:00:42.893Z,4.87
2019-05-28T18:03:15.315Z,5.80
2019-05-28T18:05:48.005Z,5.23
2019-05-28T18:08:20.815Z,4.53
2019-05-28T18:11:03.718Z,5.53
2019-05-28T18:13:28.553Z,5.73
2019-05-28T18:16:01.391Z,5.00
2019-05-28T18:18:33.919Z,5.77
2019-05-28T18:21:06.526Z,5.40
2019-05-28T18:23:39.204Z,5.77
2019-05-28T18:26:11.945Z,6.03
2019-05-28T18:28:44.590Z,5.73
2019-05-28T18:31:17.357Z,6.67
2019-05-28T18:33:49.817Z,5.90
2019-05-28T18:36:22.305Z,6.03
2019-05-28T18:38:54.841Z,6.63
2019-05-28T18:41:28.020Z,6.03
2019-05-28T18:44:01.533Z,5.97
2019-05-28T18:46:34.691Z,6.23
2019-05-28T18:49:07.395Z,5.63
2019-05-28T18:51:40.051Z,6.80
2019-05-28T18:54:12.507Z,8.93
2019-05-28T18:56:45.066Z,6.27
2019-05-28T18:59:17.688Z,6.47
2019-05-28T19:01:50.405Z,6.73
2019-05-28T19:04:23.236Z,7.07
2019-05-28T19:06:55.696Z,5.87
2019-05-28T19:09:28.360Z,5.40
2019-05-28T19:12:01.046Z,5.33
2019-05-28T19:14:33.991Z,5.47
2019-05-28T19:17:06.981Z,5.67
2019-05-28T19:19:40.709Z,6.53
2019-05-28T19:22:13.466Z,5.13
2019-05-28T19:24:46.170Z,5.87
2019-05-28T19:27:18.606Z,5.70
2019-05-28T19:29:51.196Z,5.30
2019-05-28T19:32:23.746Z,5.33
2019-05-28T19:34:56.930Z,4.87
2019-05-28T19:37:29.660Z,5.63
2019-05-28T19:40:02.435Z,5.30
2019-05-28T19:42:35.157Z,4.93
2019-05-28T19:45:11.110Z,5.20
2019-05-28T19:47:43.990Z,5.50
2019-05-28T19:50:16.868Z,6.03
2019-05-28T19:52:49.469Z,5.90
2019-05-28T19:55:21.985Z,5.67
2019-05-28T19:57:54.307Z,5.67
2019-05-28T20:00:27.772Z,6.13
2019-05-28T20:03:00.925Z,5.93
2019-05-28T20:05:33.578Z,6.10
2019-05-28T20:08:06.225Z,6.03
2019-05-28T20:10:39.135Z,6.07
2019-05-28T20:13:12.643Z,8.00
2019-05-28T20:15:45.435Z,6.13
2019-05-28T20:18:26.202Z,6.93
2019-05-28T20:20:52.260Z,8.47
2019-05-28T20:23:24.841Z,7.50
2019-05-28T20:25:57.432Z,7.87
2019-05-28T20:28:30.103Z,8.57
2019-05-28T20:31:03.688Z,6.97
2019-05-28T20:33:36.571Z,16.87
2019-05-28T20:36:10.025Z,8.47
2019-05-28T20:38:42.735Z,7.50
2019-05-28T20:41:15.576Z,6.53
2019-05-28T20:43:48.235Z,6.93
2019-05-28T20:46:20.825Z,5.07
2019-05-28T20:48:53.800Z,5.30
2019-05-28T20:51:26.510Z,6.60
2019-05-28T20:53:59.055Z,6.73
2019-05-28T20:56:31.573Z,7.03
2019-05-28T20:59:04.195Z,7.77
2019-05-28T21:01:37.240Z,7.27
2019-05-28T21:04:09.743Z,6.57
2019-05-28T21:06:43.476Z,7.17
2019-05-28T21:09:16.080Z,6.80
2019-05-28T21:11:48.729Z,6.53
2019-05-28T21:14:21.306Z,5.60
2019-05-28T21:16:54.984Z,5.70
2019-05-28T21:19:27.825Z,6.90
2019-05-28T21:22:00.590Z,7.53
2019-05-28T21:24:33.291Z,7.07
2019-05-28T21:27:06.101Z,6.73
2019-05-28T21:29:38.751Z,6.50
2019-05-28T21:32:12.331Z,5.77
2019-05-28T21:34:44.955Z,5.73
2019-05-28T21:37:17.565Z,5.30
2019-05-28T21:39:51.329Z,5.20
2019-05-28T21:42:23.915Z,6.20
2019-05-28T21:44:56.415Z,6.03
2019-05-28T21:47:28.941Z,5.80
2019-05-28T21:50:02.045Z,5.20
2019-05-28T21:52:35.786Z,6.30
2019-05-28T21:55:10.070Z,5.73
2019-05-28T21:57:42.415Z,5.90
2019-05-28T22:00:29.700Z,5.07
2019-05-28T22:03:05.083Z,5.43
2019-05-28T22:05:37.860Z,5.37
2019-05-28T22:08:10.480Z,4.83
2019-05-28T22:10:44.509Z,6.60
2019-05-28T22:13:22.249Z,5.97
2019-05-28T22:15:51.156Z,6.53
2019-05-28T22:18:23.557Z,5.97
2019-05-28T22:20:56.669Z,6.20
2019-05-28T22:23:29.311Z,6.57
2019-05-28T22:26:02.661Z,6.27
2019-05-28T22:28:35.366Z,6.90
2019-05-28T22:31:08.173Z,6.57
2019-05-28T22:33:41.290Z,6.07
2019-05-28T22:36:13.705Z,6.77
2019-05-28T22:38:47.901Z,6.73
2019-05-28T22:41:20.635Z,6.60
2019-05-28T22:43:53.165Z,6.30
2019-05-28T22:46:25.700Z,6.23
2019-05-28T22:48:59.149Z,6.53
2019-05-28T22:51:31.960Z,6.20
2019-05-28T22:54:06.069Z,5.17
2019-05-28T22:56:39.935Z,5.93
2019-05-28T22:59:12.335Z,4.90
2019-05-28T23:01:45.291Z,4.83
2019-05-28T23:04:17.735Z,5.50
2019-05-28T23:06:50.310Z,5.77
2019-05-28T23:09:22.954Z,5.90
2019-05-28T23:11:55.607Z,5.30
2019-05-28T23:14:30.850Z,6.83
2019-05-28T23:17:04.178Z,5.57
2019-05-28T23:19:36.650Z,5.77
2019-05-28T23:22:09.390Z,6.20
2019-05-28T23:24:41.930Z,5.90
2019-05-28T23:27:14.290Z,5.50
2019-05-28T23:29:46.767Z,5.63
2019-05-28T23:32:19.485Z,6.70
2019-05-28T23:34:52.025Z,6.90
2019-05-28T23:37:24.705Z,7.97
2019-05-28T23:39:57.645Z,6.70
2019-05-28T23:42:29.997Z,6.60
2019-05-28T23:45:03.487Z,5.20
2019-05-28T23:47:36.311Z,6.63
2019-05-28T23:50:14.456Z,4.87
2019-05-28T23:52:44.327Z,3.70
2019-05-28T23:55:18.110Z,4.10
2019-05-28T23:57:50.531Z,7.37
